Time;durP1;ratioP1;P1;durP2;ratioP2;P2;SDS_P1;SDS_P2;PMS_P1;PMS_P2;Temp;Humidity;BMP_temperature;BMP_pressure;BME280_temperature;BME280_humidity;BME280_pressure;Samples;Min_cycle;Max_cycle;Signal;HPM_P1;HPM_P2
2022/12/02 00:00:03;;;;;;;14.55;7.20;;;;;;;;;;5019222;28;20030;-80
2022/12/02 00:02:30;;;;;;;14.15;7.25;;;;;;;;;;5022319;28;20065;-80
2022/12/02 00:04:57;;;;;;;21.02;7.65;;;;;;;;;;5027815;28;20036;-80
2022/12/02 00:07:23;;;;;;;21.33;6.50;;;;;;;;;;5019347;28;20025;-80
2022/12/02 00:09:50;;;;;;;16.00;6.47;;;;;;;;;;5023392;28;20029;-80
2022/12/02 00:12:20;;;;;;;15.95;6.85;;;;;;;;;;5020381;28;20037;-80
2022/12/02 00:14:48;;;;;;;26.10;8.15;;;;;;;;;;5027731;28;20056;-81
2022/12/02 00:17:14;;;;;;;13.10;6.18;;;;;;;;;;5030953;28;20033;-81
2022/12/02 00:19:40;;;;;;;16.95;7.07;;;;;;;;;;5018860;28;20026;-79
2022/12/02 00:22:06;;;;;;;14.38;6.35;;;;;;;;;;5023761;28;20021;-80
2022/12/02 00:24:32;;;;;;;17.02;6.57;;;;;;;;;;5020438;28;20040;-81
2022/12/02 00:26:58;;;;;;;13.82;6.50;;;;;;;;;;5030019;28;20021;-80
2022/12/02 00:29:24;;;;;;;17.10;6.68;;;;;;;;;;5024714;28;20094;-81
2022/12/02 00:31:50;;;;;;;15.32;6.47;;;;;;;;;;5028945;28;20036;-81
2022/12/02 00:34:16;;;;;;;14.77;5.28;;;;;;;;;;5024113;28;20036;-80
2022/12/02 00:36:42;;;;;;;12.57;6.22;;;;;;;;;;5027974;28;20037;-80
2022/12/02 00:39:08;;;;;;;11.20;5.20;;;;;;;;;;5027899;28;20032;-80
2022/12/02 00:41:34;;;;;;;12.43;5.60;;;;;;;;;;5025695;28;20029;-80
2022/12/02 00:46:44;;;;;;;16.65;6.40;;;;;;;;;;5023206;28;20067;-80
2022/12/02 00:49:13;;;;;;;15.05;4.95;;;;;;;;;;5025768;28;20144;-80
2022/12/02 00:51:40;;;;;;;16.15;6.43;;;;;;;;;;5018688;28;20056;-80
2022/12/02 00:54:06;;;;;;;17.33;6.63;;;;;;;;;;5034811;28;20065;-80
2022/12/02 00:56:32;;;;;;;18.25;7.30;;;;;;;;;;5026163;28;20068;-80
2022/12/02 00:58:58;;;;;;;12.73;6.28;;;;;;;;;;5028131;28;20774;-81
2022/12/02 01:01:24;;;;;;;17.05;6.40;;;;;;;;;;5028922;28;20064;-81
2022/12/02 01:03:50;;;;;;;12.70;5.65;;;;;;;;;;5022224;28;20029;-79
2022/12/02 01:06:16;;;;;;;14.50;5.75;;;;;;;;;;5033853;28;20037;-80
2022/12/02 01:08:43;;;;;;;17.73;7.13;;;;;;;;;;5027296;28;20056;-80
2022/12/02 01:11:09;;;;;;;13.23;5.90;;;;;;;;;;5022769;28;20538;-80
2022/12/02 01:13:35;;;;;;;14.25;7.05;;;;;;;;;;5032176;28;20055;-80
2022/12/02 01:16:01;;;;;;;15.95;5.85;;;;;;;;;;5026621;28;20060;-80
2022/12/02 01:18:27;;;;;;;15.27;5.78;;;;;;;;;;5030552;28;20611;-80
2022/12/02 01:20:52;;;;;;;13.65;5.93;;;4.50;99.90;;;;;;5025886;28;20037;-80
2022/12/02 01:23:18;;;;;;;15.25;6.80;;;;;;;;;;5018869;28;20239;-81
2022/12/02 01:25:44;;;;;;;11.70;6.47;;;;;;;;;;5024151;28;20116;-80
2022/12/02 01:28:10;;;;;;;13.07;5.78;;;;;;;;;;5026322;28;20241;-80
2022/12/02 01:30:37;;;;;;;12.73;6.07;;;;;;;;;;5030132;28;20033;-81
2022/12/02 01:33:03;;;;;;;16.08;6.80;;;;;;;;;;5022659;28;20933;-80
2022/12/02 01:35:29;;;;;;;15.20;6.32;;;;;;;;;;5022013;28;20412;-80
2022/12/02 01:37:55;;;;;;;15.35;6.05;;;;;;;;;;5026062;28;20027;-81
2022/12/02 01:40:21;;;;;;;16.35;6.63;;;;;;;;;;5023069;28;20640;-81
2022/12/02 01:42:48;;;;;;;16.95;7.70;;;;;;;;;;5018422;28;20049;-79
2022/12/02 01:45:14;;;;;;;15.57;7.10;;;;;;;;;;5038857;28;20120;-80
2022/12/02 01:47:40;;;;;;;20.45;7.30;;;;;;;;;;5021746;28;20036;-81
2022/12/02 01:50:08;;;;;;;15.52;6.53;;;;;;;;;;5020408;28;20431;-81
2022/12/02 01:52:34;;;;;;;16.02;6.30;;;;;;;;;;5018109;28;20029;-80
2022/12/02 01:55:00;;;;;;;17.02;7.68;;;;;;;;;;5031508;28;20176;-81
2022/12/02 01:57:27;;;;;;;14.43;6.55;;;;;;;;;;5019478;28;20472;-80
2022/12/02 01:59:53;;;;;;;11.50;4.90;;;;;;;;;;5023253;28;20064;-80
2022/12/02 02:02:30;;;;;;;15.93;6.13;;;;;;;;;;5026164;28;20112;-80
2022/12/02 02:05:00;;;;;;;16.83;6.65;;;;;;;;;;5020710;28;20061;-82
2022/12/02 02:07:27;;;;;;;15.45;7.15;;;4.30;99.90;;;;;;5028508;28;20029;-81
2022/12/02 02:09:53;;;;;;;16.05;6.68;;;;;;;;;;5022997;28;20084;-80
2022/12/02 02:12:19;;;;;;;16.08;7.53;;;;;;;;;;5028877;28;20064;-80
2022/12/02 02:14:46;;;;;;;15.05;5.45;;;;;;;;;;5022864;28;20037;-80
2022/12/02 02:17:12;;;;;;;16.08;7.22;;;;;;;;;;5020339;28;20029;-81
2022/12/02 02:19:38;;;;;;;15.43;6.55;;;;;;;;;;5022784;28;20476;-80
2022/12/02 02:22:07;;;;;;;13.75;6.03;;;;;;;;;;5020812;28;20029;-81
2022/12/02 02:24:32;;;;;;;14.65;6.60;;;;;;;;;;5033841;28;20045;-80
2022/12/02 02:26:58;;;;;;;13.52;7.03;;;;;;;;;;5026305;28;20088;-80
2022/12/02 02:29:24;;;;;;;13.75;7.30;;;;;;;;;;5023052;28;20022;-80
2022/12/02 02:31:50;;;;;;;15.48;6.32;;;;;;;;;;5022431;28;20125;-81
2022/12/02 02:34:16;;;;;;;20.65;8.48;;;;;;;;;;5029141;28;20037;-80
2022/12/02 02:36:42;;;;;;;21.23;7.25;;;;;;;;;;5026780;28;20048;-81
2022/12/02 02:39:08;;;;;;;15.65;6.78;;;;;;;;;;5023674;28;20509;-80
2022/12/02 02:41:34;;;;;;;15.90;6.95;;;;;;;;;;5015832;28;20061;-80
2022/12/02 02:44:00;;;;;;;15.80;6.78;;;;;;;;;;5017563;28;20037;-80
2022/12/02 02:46:26;;;;;;;14.90;6.28;;;4.50;99.90;;;;;;5030475;28;20033;-80
2022/12/02 02:48:52;;;;;;;15.38;7.03;;;;;;;;;;5017115;28;20088;-82
2022/12/02 02:51:18;;;;;;;18.15;7.20;;;;;;;;;;5027002;28;20061;-81
2022/12/02 02:53:44;;;;;;;17.40;7.97;;;;;;;;;;5027179;28;20063;-81
2022/12/02 02:56:10;;;;;;;17.60;7.63;;;;;;;;;;5020300;28;20495;-80
2022/12/02 02:58:36;;;;;;;14.75;6.57;;;;;;;;;;5024069;28;20097;-80
2022/12/02 03:01:07;;;;;;;14.98;6.57;;;;;;;;;;5026117;28;20064;-80
2022/12/02 03:03:33;;;;;;;19.58;8.05;;;;;;;;;;5020036;28;20429;-80
2022/12/02 03:06:00;;;;;;;17.52;7.43;;;;;;;;;;5018466;28;20072;-81
2022/12/02 03:08:28;;;;;;;20.35;7.68;;;;;;;;;;5021623;28;25105;-81
2022/12/02 03:10:55;;;;;;;21.48;6.65;;;;;;;;;;5028841;28;20022;-80
2022/12/02 03:13:21;;;;;;;21.25;7.97;;;;;;;;;;5022666;28;20121;-80
2022/12/02 03:15:47;;;;;;;24.77;7.78;;;;;;;;;;5034203;28;20037;-81
2022/12/02 03:18:13;;;;;;;20.02;7.07;;;;;;;;;;5029393;28;20406;-80
2022/12/02 03:20:39;;;;;;;17.23;7.68;;;4.10;99.90;;;;;;5028857;28;20034;-80
2022/12/02 03:23:05;;;;;;;13.45;6.05;;;;;;;;;;5028110;28;20033;-80
2022/12/02 03:25:31;;;;;;;16.08;7.20;;;;;;;;;;5024622;28;20029;-80
2022/12/02 03:27:57;;;;;;;19.90;6.80;;;;;;;;;;5024972;28;20025;-80
2022/12/02 03:30:23;;;;;;;24.17;8.15;;;;;;;;;;5028487;28;20068;-80
2022/12/02 03:32:49;;;;;;;19.55;6.78;;;;;;;;;;5029801;28;20044;-81
2022/12/02 03:35:15;;;;;;;17.75;7.13;;;;;;;;;;5026084;28;20056;-81
2022/12/02 03:37:41;;;;;;;18.58;6.85;;;;;;;;;;5021783;28;20946;-81
2022/12/02 03:40:08;;;;;;;16.90;7.15;;;;;;;;;;5011414;28;20041;-81
2022/12/02 03:42:34;;;;;;;21.20;8.68;;;;;;;;;;5021473;28;20041;-80
2022/12/02 03:45:00;;;;;;;20.38;7.13;;;;;;;;;;5029746;28;20032;-81
2022/12/02 03:47:26;;;;;;;32.50;9.90;;;;;;;;;;5023973;28;20033;-81
2022/12/02 03:49:52;;;;;;;16.95;8.43;;;;;;;;;;5022458;28;20111;-81
2022/12/02 03:52:18;;;;;;;21.17;8.18;;;;;;;;;;5021631;28;20069;-81
2022/12/02 03:54:45;;;;;;;23.05;8.95;;;;;;;;;;5026709;28;20078;-81
2022/12/02 03:57:11;;;;;;;24.23;8.85;;;;;;;;;;5025365;28;20044;-81
2022/12/02 03:59:37;;;;;;;21.65;8.65;;;;;;;;;;5021915;28;20025;-81
2022/12/02 04:02:03;;;;;;;22.85;9.80;;;;;;;;;;5020544;28;20132;-81
2022/12/02 04:04:29;;;;;;;20.73;8.68;;;;;;;;;;5022988;28;20037;-80
2022/12/02 04:06:55;;;;;;;19.50;8.77;;;;;;;;;;5017955;28;20151;-81
2022/12/02 04:09:21;;;;;;;20.70;8.85;;;;;;;;;;5028292;28;20061;-82
2022/12/02 04:11:47;;;;;;;22.73;8.68;;;;;;;;;;5029183;28;20033;-80
2022/12/02 04:14:13;;;;;;;12.55;6.00;;;;;;;;;;5036197;28;20038;-81
2022/12/02 04:16:39;;;;;;;23.38;9.20;;;;;;;;;;5045191;28;20050;-80
2022/12/02 04:19:05;;;;;;;18.35;8.38;;;;;;;;;;5039192;28;20042;-81
2022/12/02 04:21:31;;;;;;;17.58;8.57;;;;;;;;;;5032859;28;20089;-81
2022/12/02 04:23:57;;;;;;;18.77;7.40;;;;;;;;;;5034916;28;20057;-81
2022/12/02 04:26:23;;;;;;;19.67;7.57;;;;;;;;;;5029354;28;20037;-81
2022/12/02 04:28:49;;;;;;;14.85;7.00;;;;;;;;;;5030476;28;20366;-80
2022/12/02 04:31:15;;;;;;;17.85;7.10;;;;;;;;;;5037535;28;20761;-82
2022/12/02 04:33:41;;;;;;;16.90;7.32;;;;;;;;;;5035169;28;20057;-81
2022/12/02 04:36:07;;;;;;;19.30;7.43;;;;;;;;;;5031112;28;20044;-81
2022/12/02 04:38:33;;;;;;;18.13;7.20;;;;;;;;;;5029012;28;20138;-81
2022/12/02 04:40:58;;;;;;;20.73;6.05;;;;;;;;;;5022673;28;20122;-83
2022/12/02 04:43:24;;;;;;;13.70;6.57;;;;;;;;;;5013841;28;20037;-80
2022/12/02 04:45:50;;;;;;;22.27;8.52;;;;;;;;;;5027332;28;20025;-81
2022/12/02 04:48:16;;;;;;;16.65;5.80;;;;;;;;;;5022818;28;20021;-81
2022/12/02 04:50:42;;;;;;;17.75;7.45;;;;;;;;;;5032655;28;20534;-81
2022/12/02 04:53:08;;;;;;;15.40;7.30;;;;;;;;;;5023645;28;20077;-80
2022/12/02 04:55:34;;;;;;;14.43;5.97;;;;;;;;;;5033092;28;20608;-82
2022/12/02 04:58:00;;;;;;;15.35;5.78;;;;;;;;;;5023426;28;20026;-82
2022/12/02 05:00:26;;;;;;;18.88;7.53;;;;;;;;;;5027952;28;20097;-81
2022/12/02 05:02:52;;;;;;;11.95;5.95;;;;;;;;;;5013943;28;20422;-83
2022/12/02 05:05:18;;;;;;;12.00;5.03;;;;;;;;;;5032013;28;20507;-80
2022/12/02 05:07:44;;;;;;;17.10;5.45;;;;;;;;;;5035042;28;20025;-83
2022/12/02 05:10:10;;;;;;;12.05;6.93;;;;;;;;;;5035041;28;20554;-80
2022/12/02 05:12:36;;;;;;;14.13;5.45;;;;;;;;;;5004161;28;20128;-81
2022/12/02 05:15:02;;;;;;;16.52;6.65;;;;;;;;;;5031241;28;20427;-81
2022/12/02 05:17:29;;;;;;;14.25;6.10;;;;;;;;;;5028850;28;20036;-80
2022/12/02 05:19:55;;;;;;;13.50;6.07;;;;;;;;;;5025015;28;21725;-82
2022/12/02 05:22:22;;;;;;;15.07;5.32;;;;;;;;;;5020279;28;20522;-83
2022/12/02 05:24:48;;;;;;;12.75;5.88;;;;;;;;;;5017721;28;20034;-80
2022/12/02 05:27:14;;;;;;;20.60;7.18;;;;;;;;;;5022530;28;20491;-82
2022/12/02 05:29:40;;;;;;;11.55;5.20;;;;;;;;;;5033592;28;20044;-81
2022/12/02 05:32:06;;;;;;;12.00;5.03;;;;;;;;;;5027037;28;20021;-84
2022/12/02 05:34:32;;;;;;;16.80;6.05;;;;;;;;;;5034571;28;20506;-82
2022/12/02 05:36:58;;;;;;;16.90;6.57;;;;;;;;;;5021411;28;20124;-82
2022/12/02 05:39:24;;;;;;;11.13;4.82;;;;;;;;;;5026914;28;20026;-82
2022/12/02 05:41:50;;;;;;;12.77;6.18;;;;;;;;;;5026005;28;20033;-81
2022/12/02 05:44:23;;;;;;;12.40;4.95;;;;;;;;;;5033682;28;20069;-82
2022/12/02 05:46:49;;;;;;;11.57;4.70;;;;;;;;;;5025543;28;20033;-81
2022/12/02 05:49:18;;;;;;;16.15;6.57;;;;;;;;;;5025137;28;20025;-82
2022/12/02 05:51:44;;;;;;;11.95;5.25;;;;;;;;;;5028461;28;20029;-81
2022/12/02 05:54:15;;;;;;;9.77;4.90;;;;;;;;;;5003580;28;20032;-81
2022/12/02 05:56:41;;;;;;;8.85;5.18;;;;;;;;;;5023224;28;20045;-82
2022/12/02 05:59:07;;;;;;;10.95;4.38;;;;;;;;;;5024037;28;20121;-82
2022/12/02 06:01:33;;;;;;;13.27;4.10;;;;;;;;;;5018521;28;20029;-81
2022/12/02 06:03:59;;;;;;;8.55;5.18;;;;;;;;;;5024240;28;20457;-82
2022/12/02 06:06:28;;;;;;;12.65;5.85;;;;;;;;;;5012521;28;20533;-81
2022/12/02 06:08:55;;;;;;;10.10;4.60;;;;;;;;;;5024315;28;20023;-81
2022/12/02 06:11:37;;;;;;;15.35;4.55;;;4.10;99.90;;;;;;5019823;28;20037;-82
2022/12/02 06:14:08;;;;;;;7.47;3.80;;;;;;;;;;5025068;28;20123;-80
2022/12/02 06:16:35;;;;;;;8.10;3.38;;;;;;;;;;5020608;28;20515;-83
2022/12/02 06:19:07;;;;;;;9.18;4.53;;;4.00;99.90;;;;;;5017919;28;20190;-81
2022/12/02 06:21:33;;;;;;;14.20;5.15;;;4.30;99.90;;;;;;5024715;28;20029;-81
2022/12/02 06:24:01;;;;;;;12.15;5.65;;;;;;;;;;5030338;28;20578;-82
2022/12/02 06:26:27;;;;;;;11.38;4.90;;;;;;;;;;5031103;28;20037;-81
2022/12/02 06:28:57;;;;;;;14.90;5.63;;;;;;;;;;5018572;28;20072;-80
2022/12/02 06:31:24;;;;;;;13.18;4.97;;;;;;;;;;5032995;28;20130;-81
2022/12/02 06:33:52;;;;;;;13.20;5.78;;;4.10;99.90;;;;;;5031075;28;20060;-81
2022/12/02 06:36:21;;;;;;;11.90;6.05;;;;;;;;;;5028319;28;20029;-81
2022/12/02 06:38:48;;;;;;;15.93;6.03;;;;;;;;;;5028961;28;20391;-81
2022/12/02 06:41:26;;;;;;;15.85;6.30;;;4.10;99.90;;;;;;5019683;28;20388;-82
2022/12/02 06:46:41;;;;;;;12.10;4.60;;;;;;;;;;5029216;28;20406;-82
2022/12/02 06:49:21;;;;;;;10.43;5.07;;;;;;;;;;5024433;28;20029;-81
2022/12/02 06:51:51;;;;;;;14.77;5.70;;;;;;;;;;5031141;28;20112;-80
2022/12/02 06:54:21;;;;;;;9.63;5.43;;;;;;;;;;5030350;28;20427;-80
2022/12/02 06:56:48;;;;;;;8.10;4.55;;;;;;;;;;5019440;28;20091;-80
2022/12/02 06:59:15;;;;;;;14.60;6.18;;;;;;;;;;5028562;28;20021;-83
2022/12/02 07:01:55;;;;;;;8.00;3.80;;;3.80;99.90;;;;;;5090409;27;20476;-83
2022/12/02 07:04:36;;;;;;;10.48;4.82;;;;;;;;;;5086945;28;20032;-81
2022/12/02 07:07:22;;;;;;;10.23;5.32;;;;;;;;;;5087370;28;20024;-82
2022/12/02 07:09:51;;;;;;;24.90;11.05;;;;;;;;;;5083973;28;20550;-81
2022/12/02 07:12:25;;;;;;;17.73;9.57;;;;;;;;;;5085207;28;20472;-81
2022/12/02 07:14:52;;;;;;;18.52;9.15;;;;;;;;;;5078796;28;20043;-81
2022/12/02 07:17:29;;;;;;;14.35;6.25;;;4.30;99.90;;;;;;5078389;28;20508;-82
2022/12/02 07:19:55;;;;;;;14.90;6.45;;;;;;;;;;5088073;28;20068;-82
2022/12/02 07:22:48;;;;;;;23.75;6.05;;;3.70;99.90;;;;;;5082294;28;20194;-80
2022/12/02 07:25:33;;;;;;;9.68;4.35;;;;;;;;;;5075143;28;20032;-81
2022/12/02 07:28:00;;;;;;;15.77;5.00;;;;;;;;;;5085029;28;20046;-81
2022/12/02 07:30:34;;;;;;;11.77;5.65;;;;;;;;;;5082914;28;20736;-82
2022/12/02 07:33:00;;;;;;;14.65;5.40;;;;;;;;;;5082906;28;20119;-81
2022/12/02 07:35:26;;;;;;;12.65;6.03;;;;;;;;;;5080860;28;20132;-81
2022/12/02 07:37:52;;;;;;;16.88;5.10;;;;;;;;;;5084699;28;20443;-81
2022/12/02 07:40:19;;;;;;;10.90;4.65;;;;;;;;;;5088739;28;20063;-81
2022/12/02 07:42:45;;;;;;;12.65;6.35;;;;;;;;;;5080132;28;20031;-80
2022/12/02 07:45:13;;;;;;;10.95;5.53;;;3.70;99.90;;;;;;5083793;28;20115;-80
2022/12/02 07:47:38;;;;;;;9.23;4.82;;;;;;;;;;5078824;28;20048;-81
2022/12/02 07:50:05;;;;;;;13.60;6.57;;;;;;;;;;5076946;28;20515;-81
2022/12/02 07:52:31;;;;;;;13.70;5.82;;;;;;;;;;5084946;28;20412;-82
2022/12/02 07:54:57;;;;;;;15.52;5.13;;;;;;;;;;5082747;28;20020;-80
2022/12/02 07:57:23;;;;;;;16.52;7.32;;;;;;;;;;5085494;28;20056;-81
2022/12/02 07:59:49;;;;;;;12.57;6.05;;;;;;;;;;5081934;28;20078;-82
2022/12/02 08:02:15;;;;;;;9.25;5.03;;;;;;;;;;5077394;28;20411;-81
2022/12/02 08:04:41;;;;;;;11.40;5.60;;;;;;;;;;5086124;28;20028;-81
2022/12/02 08:07:07;;;;;;;12.60;5.47;;;;;;;;;;5077628;28;20021;-80
2022/12/02 08:09:32;;;;;;;11.60;5.30;;;4.00;99.90;;;;;;5081817;28;20036;-80
2022/12/02 08:11:58;;;;;;;17.35;7.72;;;;;;;;;;5067953;28;20033;-81
2022/12/02 08:14:24;;;;;;;12.65;5.68;;;;;;;;;;5069557;28;20115;-81
2022/12/02 08:16:50;;;;;;;12.05;5.63;;;;;;;;;;5070337;28;20419;-81
2022/12/02 08:19:16;;;;;;;11.77;5.97;;;;;;;;;;5072567;28;20039;-79
2022/12/02 08:21:42;;;;;;;15.73;7.93;;;;;;;;;;5070727;28;20036;-82
2022/12/02 08:24:08;;;;;;;13.60;6.90;;;;;;;;;;5066804;28;20369;-80
2022/12/02 08:26:34;;;;;;;12.98;6.82;;;;;;;;;;5068496;28;20028;-80
2022/12/02 08:29:00;;;;;;;13.07;6.57;;;;;;;;;;5069310;28;20052;-80
2022/12/02 08:31:27;;;;;;;14.60;6.22;;;3.80;99.90;;;;;;5061226;28;20043;-81
2022/12/02 08:33:53;;;;;;;15.43;6.35;;;4.10;99.90;;;;;;5074812;28;20032;-81
2022/12/02 08:36:19;;;;;;;17.73;6.65;;;4.00;99.90;;;;;;5056674;28;20082;-82
2022/12/02 08:38:45;;;;;;;13.50;6.70;;;4.00;99.90;;;;;;5068486;28;20028;-84
2022/12/02 08:41:11;;;;;;;16.40;6.07;;;;;;;;;;5068725;28;20052;-84
2022/12/02 08:43:37;;;;;;;13.45;6.45;;;;;;;;;;5072463;28;20028;-83
2022/12/02 08:46:03;;;;;;;12.60;6.57;;;;;;;;;;5069145;28;20097;-82
2022/12/02 08:48:29;;;;;;;15.60;6.60;;;;;;;;;;5072864;28;20032;-84
2022/12/02 08:50:55;;;;;;;11.77;6.57;;;;;;;;;;5065689;28;20043;-83
2022/12/02 08:53:22;;;;;;;11.98;6.20;;;;;;;;;;5073238;28;20092;-82
2022/12/02 08:55:47;;;;;;;18.05;7.40;;;;;;;;;;5074372;28;20021;-82
2022/12/02 08:58:13;;;;;;;12.45;6.35;;;;;;;;;;5072726;28;20228;-83
2022/12/02 09:00:39;;;;;;;12.07;5.82;;;;;;;;;;5076488;28;20040;-81
2022/12/02 09:03:06;;;;;;;13.25;6.43;;;;;;;;;;5081570;28;20094;-82
2022/12/02 09:05:32;;;;;;;13.82;6.00;;;;;;;;;;5080133;28;20088;-83
2022/12/02 09:07:58;;;;;;;13.68;6.22;;;;;;;;;;5070839;28;20016;-83
2022/12/02 09:10:24;;;;;;;13.30;5.93;;;;;;;;;;5076204;28;20031;-83
2022/12/02 09:12:50;;;;;;;11.27;5.57;;;;;;;;;;5067279;28;20856;-83
2022/12/02 09:15:16;;;;;;;15.73;5.72;;;;;;;;;;5072254;28;20035;-83
2022/12/02 09:17:42;;;;;;;17.35;6.97;;;;;;;;;;5069709;28;20307;-85
2022/12/02 09:20:08;;;;;;;15.27;5.07;;;;;;;;;;5057894;28;20090;-83
2022/12/02 09:22:34;;;;;;;18.50;6.78;;;;;;;;;;5061592;28;20032;-84
2022/12/02 09:25:00;;;;;;;10.35;5.55;;;;;;;;;;5070296;28;20789;-83
2022/12/02 09:27:26;;;;;;;12.98;5.00;;;;;;;;;;5064959;28;20025;-84
2022/12/02 09:29:52;;;;;;;15.80;6.18;;;;;;;;;;5075241;28;20008;-84
2022/12/02 09:32:18;;;;;;;13.48;5.28;;;;;;;;;;5081921;28;20729;-82
2022/12/02 09:34:44;;;;;;;14.63;6.78;;;;;;;;;;5090162;28;20016;-86
2022/12/02 09:37:10;;;;;;;12.88;5.38;;;;;;;;;;5084296;28;20037;-82
2022/12/02 09:39:36;;;;;;;11.30;5.07;;;;;;;;;;5074853;28;20032;-82
2022/12/02 09:42:02;;;;;;;17.25;6.78;;;;;;;;;;5067657;28;20028;-82
2022/12/02 09:44:28;;;;;;;11.68;5.10;;;;;;;;;;5074114;28;20028;-83
2022/12/02 09:46:54;;;;;;;11.82;5.55;;;;;;;;;;5074511;28;20020;-84
2022/12/02 09:49:20;;;;;;;16.42;7.63;;;;;;;;;;5067857;28;20035;-84
2022/12/02 09:51:46;;;;;;;15.68;5.85;;;;;;;;;;5068193;28;20028;-84
2022/12/02 09:54:14;;;;;;;8.57;5.00;;;;;;;;;;5074480;28;20044;-83
2022/12/02 09:56:40;;;;;;;15.60;6.47;;;;;;;;;;5078419;28;20264;-83
2022/12/02 09:59:13;;;;;;;12.80;6.30;;;4.10;99.90;;;;;;5082233;28;20037;-82
2022/12/02 10:01:42;;;;;;;13.95;6.22;;;;;;;;;;5077362;28;20036;-83
2022/12/02 10:04:09;;;;;;;18.15;5.78;;;;;;;;;;5081912;28;20025;-82
2022/12/02 10:06:34;;;;;;;14.38;6.15;;;;;;;;;;5072718;28;20028;-81
2022/12/02 10:09:01;;;;;;;9.27;4.78;;;;;;;;;;5078349;28;20028;-81
2022/12/02 10:11:33;;;;;;;15.00;6.65;;;4.10;99.90;;;;;;5074069;28;20048;-83
2022/12/02 10:14:01;;;;;;;15.55;7.53;;;;;;;;;;5073480;28;20056;-82
2022/12/02 10:16:27;;;;;;;10.60;4.57;;;;;;;;;;5080034;28;20111;-82
2022/12/02 10:18:56;;;;;;;12.43;6.25;;;;;;;;;;5080796;28;20039;-82
2022/12/02 10:21:22;;;;;;;12.00;4.70;;;;;;;;;;5077915;28;20048;-82
2022/12/02 10:23:54;;;;;;;12.55;5.50;;;;;;;;;;5082915;28;20116;-82
2022/12/02 10:26:20;;;;;;;16.05;6.50;;;;;;;;;;5067442;28;20510;-82
2022/12/02 10:29:07;;;;;;;15.55;7.10;;;4.20;99.90;;;;;;5076234;28;20048;-82
2022/12/02 10:31:33;;;;;;;11.65;5.95;;;4.70;99.90;;;;;;5075592;28;20033;-83
2022/12/02 10:34:01;;;;;;;9.80;5.30;;;;;;;;;;5077008;28;20046;-82
2022/12/02 10:36:30;;;;;;;10.35;6.25;;;;;;;;;;5066028;28;20025;-85
2022/12/02 10:39:15;;;;;;;12.65;5.75;;;;;;;;;;5069897;28;20028;-81
2022/12/02 10:41:41;;;;;;;13.07;5.75;;;;;;;;;;5064598;28;20044;-82
2022/12/02 10:44:17;;;;;;;11.80;5.43;;;;;;;;;;5066156;28;20119;-82
2022/12/02 10:46:44;;;;;;;16.70;6.75;;;;;;;;;;5070940;28;20069;-83
2022/12/02 10:49:25;;;;;;;11.65;5.82;;;;;;;;;;5067054;28;20033;-83
2022/12/02 10:51:51;;;;;;;13.80;6.20;;;;;;;;;;5070125;28;20032;-82
2022/12/02 10:54:21;;;;;;;11.52;5.22;;;;;;;;;;5070200;28;20024;-80
2022/12/02 10:56:47;;;;;;;20.33;8.02;;;;;;;;;;5065342;28;20062;-85
2022/12/02 10:59:15;;;;;;;24.77;8.57;;;4.70;99.90;;;;;;5059106;28;20495;-80
2022/12/02 11:01:41;;;;;;;13.40;5.78;;;;;;;;;;5068940;28;20060;-82
2022/12/02 11:04:14;;;;;;;10.82;5.88;;;4.10;99.90;;;;;;5068839;28;20067;-82
2022/12/02 11:06:40;;;;;;;14.23;5.50;;;;;;;;;;5073551;28;20028;-81
2022/12/02 11:09:07;;;;;;;13.30;5.00;;;;;;;;;;5070831;28;20643;-84
2022/12/02 11:11:33;;;;;;;11.10;5.80;;;;;;;;;;5067954;28;20496;-83
2022/12/02 11:13:59;;;;;;;14.48;5.68;;;;;;;;;;5069128;28;20239;-81
2022/12/02 11:16:27;;;;;;;12.15;5.47;;;;;;;;;;5070529;28;20098;-82
2022/12/02 11:18:53;;;;;;;14.85;6.68;;;;;;;;;;5075277;28;20024;-81
2022/12/02 11:21:40;;;;;;;16.20;6.35;;;;;;;;;;5071399;28;20051;-80
2022/12/02 11:24:27;;;;;;;12.93;5.75;;;;;;;;;;5066128;28;20040;-83
2022/12/02 11:26:58;;;;;;;8.82;4.72;;;3.20;99.90;;;;;;5065107;28;20025;-80
2022/12/02 11:29:25;;;;;;;9.48;5.57;;;4.00;99.90;;;;;;5063166;28;20020;-81
2022/12/02 11:32:01;;;;;;;9.75;5.05;;;4.00;99.90;;;;;;5072426;28;20063;-80
2022/12/02 11:34:40;;;;;;;9.57;5.93;;;;;;;;;;5068931;28;20032;-81
2022/12/02 11:37:28;;;;;;;14.20;5.93;;;;;;;;;;5058278;28;20591;-81
2022/12/02 11:40:01;;;;;;;10.90;5.45;;;;;;;;;;5069797;28;20041;-80
2022/12/02 11:42:28;;;;;;;10.95;6.57;;;;;;;;;;5055008;28;20025;-81
2022/12/02 11:45:09;;;;;;;14.77;4.55;;;;;;;;;;5078205;28;20031;-80
2022/12/02 11:47:35;;;;;;;6.53;3.75;;;;;;;;;;5077322;28;20052;-80
2022/12/02 11:50:13;;;;;;;12.20;5.13;;;;;;;;;;5078856;28;20123;-80
2022/12/02 11:52:40;;;;;;;10.82;4.32;;;;;;;;;;5075942;28;20029;-80
2022/12/02 11:55:17;;;;;;;10.73;5.63;;;;;;;;;;5078913;28;20054;-80
2022/12/02 11:57:54;;;;;;;15.73;5.30;;;;;;;;;;5069514;28;20389;-80
2022/12/02 12:00:24;;;;;;;10.18;5.05;;;4.00;99.90;;;;;;5072803;28;20098;-80
2022/12/02 12:03:13;;;;;;;13.95;6.30;;;;;;;;;;5077623;28;20027;-81
2022/12/02 12:05:40;;;;;;;11.65;5.38;;;;;;;;;;5078566;28;20047;-81
2022/12/02 12:08:06;;;;;;;9.13;4.40;;;;;;;;;;5080350;28;20039;-80
2022/12/02 12:10:33;;;;;;;13.80;6.13;;;;;;;;;;5067936;28;20020;-81
2022/12/02 12:13:12;;;;;;;12.57;4.78;;;;;;;;;;5077025;28;20060;-80
2022/12/02 12:15:48;;;;;;;10.27;5.40;;;;;;;;;;5068042;28;20106;-82
2022/12/02 12:18:32;;;;;;;10.35;5.50;;;;;;;;;;5068769;28;20150;-82
2022/12/02 12:20:58;;;;;;;11.25;4.88;;;;;;;;;;5072013;28;20040;-81
2022/12/02 12:23:53;;;;;;;11.52;5.05;;;;;;;;;;5073166;28;20036;-81
2022/12/02 12:26:30;;;;;;;12.43;6.22;;;;;;;;;;5067433;28;20041;-83
2022/12/02 12:29:00;;;;;;;14.05;6.43;;;;;;;;;;5063634;28;20029;-80
2022/12/02 12:31:26;;;;;;;12.55;6.57;;;;;;;;;;5063385;28;20067;-83
2022/12/02 12:33:53;;;;;;;11.45;6.47;;;;;;;;;;5056303;28;20733;-82
2022/12/02 12:36:19;;;;;;;17.40;7.35;;;;;;;;;;5071739;28;20028;-82
2022/12/02 12:38:45;;;;;;;17.70;6.32;;;4.20;99.90;;;;;;5061376;28;20088;-81
2022/12/02 12:41:10;;;;;;;14.52;5.93;;;3.70;99.90;;;;;;5066829;28;20146;-82
2022/12/02 12:43:36;;;;;;;11.73;5.75;;;;;;;;;;5070851;28;20060;-80
2022/12/02 12:46:02;;;;;;;8.68;5.13;;;;;;;;;;5070348;28;20579;-83
2022/12/02 12:48:28;;;;;;;14.57;6.85;;;;;;;;;;5065402;28;20029;-82
2022/12/02 12:50:54;;;;;;;16.92;6.47;;;;;;;;;;5073268;28;20029;-79
2022/12/02 12:53:20;;;;;;;14.75;5.38;;;;;;;;;;5078853;28;20120;-81
2022/12/02 12:55:46;;;;;;;13.02;5.55;;;;;;;;;;5071651;28;20032;-82
2022/12/02 12:58:13;;;;;;;15.90;6.82;;;;;;;;;;5072419;28;20477;-81
2022/12/02 13:00:39;;;;;;;13.70;7.25;;;;;;;;;;5070140;28;20559;-81
2022/12/02 13:03:05;;;;;;;14.25;6.28;;;;;;;;;;5067913;28;20033;-82
2022/12/02 13:05:31;;;;;;;11.95;6.32;;;3.10;99.90;;;;;;5069623;28;20166;-82
2022/12/02 13:07:57;;;;;;;13.88;5.50;;;;;;;;;;5068070;28;20025;-85
2022/12/02 13:10:23;;;;;;;19.77;6.90;;;;;;;;;;5071621;28;20044;-82
2022/12/02 13:12:49;;;;;;;17.25;6.47;;;;;;;;;;5073475;28;20451;-82
2022/12/02 13:15:15;;;;;;;9.32;4.63;;;3.80;99.90;;;;;;5067065;28;20044;-83
2022/12/02 13:17:41;;;;;;;15.48;5.93;;;;;;;;;;5067020;28;20048;-82
2022/12/02 13:20:07;;;;;;;8.20;4.90;;;;;;;;;;5060389;28;20028;-81
2022/12/02 13:22:33;;;;;;;12.25;6.15;;;;;;;;;;5063992;28;20266;-81
2022/12/02 13:24:59;;;;;;;15.73;7.70;;;;;;;;;;5075138;28;20287;-81
2022/12/02 13:27:25;;;;;;;14.57;6.38;;;;;;;;;;5078882;28;20518;-80
2022/12/02 13:29:51;;;;;;;13.02;5.05;;;;;;;;;;5079080;28;20029;-80
2022/12/02 13:32:17;;;;;;;13.30;5.88;;;;;;;;;;5077489;28;20036;-82
2022/12/02 13:34:43;;;;;;;16.10;5.18;;;;;;;;;;5070274;28;20029;-82
2022/12/02 13:37:09;;;;;;;7.15;4.07;;;;;;;;;;5069084;28;20428;-80
2022/12/02 13:39:35;;;;;;;14.07;5.20;;;4.20;99.90;;;;;;5069291;28;20066;-80
2022/12/02 13:42:01;;;;;;;13.48;5.45;;;;;;;;;;5074469;28;20619;-84
2022/12/02 13:44:27;;;;;;;12.45;5.00;;;;;;;;;;5077823;28;20033;-82
2022/12/02 13:46:53;;;;;;;14.20;5.30;;;;;;;;;;5078767;28;20384;-82
2022/12/02 13:49:19;;;;;;;11.88;5.68;;;;;;;;;;5075463;28;20047;-82
2022/12/02 13:51:45;;;;;;;12.00;5.07;;;;;;;;;;5068269;28;20092;-80
2022/12/02 13:54:11;;;;;;;10.98;5.50;;;;;;;;;;5060793;28;21511;-86
2022/12/02 13:56:37;;;;;;;9.10;5.03;;;;;;;;;;5060933;28;20101;-82
2022/12/02 13:59:03;;;;;;;8.45;4.88;;;;;;;;;;5052373;28;20020;-82
2022/12/02 14:01:28;;;;;;;11.45;4.05;;;;;;;;;;5057911;28;20188;-81
2022/12/02 14:03:54;;;;;;;11.48;5.50;;;;;;;;;;5055770;28;20035;-80
2022/12/02 14:06:20;;;;;;;9.93;4.82;;;;;;;;;;5054014;28;20117;-79
2022/12/02 14:08:46;;;;;;;14.07;5.63;;;;;;;;;;5065771;28;20483;-79
2022/12/02 14:11:12;;;;;;;8.20;4.45;;;;;;;;;;5057625;28;20055;-81
2022/12/02 14:13:38;;;;;;;11.00;5.78;;;;;;;;;;5063279;28;21533;-81
2022/12/02 14:16:04;;;;;;;15.13;5.68;;;;;;;;;;5059805;28;20054;-80
2022/12/02 14:18:30;;;;;;;10.60;4.97;;;;;;;;;;5060002;28;20063;-78
2022/12/02 14:20:56;;;;;;;13.27;6.10;;;;;;;;;;5062346;28;20079;-81
2022/12/02 14:23:22;;;;;;;14.50;5.82;;;;;;;;;;5066940;28;20029;-81
2022/12/02 14:25:48;;;;;;;15.85;6.00;;;;;;;;;;5061966;28;20488;-82
2022/12/02 14:28:14;;;;;;;12.70;5.38;;;;;;;;;;5073408;28;20044;-81